createdAt,value
2022-09-24T00:01:16.059Z,20.60
2022-09-24T00:04:20.195Z,24.00
2022-09-24T00:07:23.933Z,23.60
2022-09-24T00:10:27.555Z,23.00
2022-09-24T00:13:31.203Z,21.80
2022-09-24T00:16:36.277Z,23.00
2022-09-24T00:19:39.689Z,23.00
2022-09-24T00:22:43.127Z,22.40
2022-09-24T00:26:05.714Z,21.40
2022-09-24T00:29:10.164Z,23.00
2022-09-24T00:32:14.914Z,21.80
2022-09-24T00:35:18.897Z,23.40
2022-09-24T00:38:22.284Z,26.00
2022-09-24T00:41:28.629Z,22.40
2022-09-24T00:44:54.704Z,22.40
2022-09-24T00:48:00.647Z,23.40
2022-09-24T00:51:05.857Z,22.00
2022-09-24T00:54:14.279Z,27.00
2022-09-24T00:57:18.068Z,26.00
2022-09-24T01:00:22.119Z,24.50
2022-09-24T01:03:28.824Z,25.80
2022-09-24T01:06:32.279Z,25.60
2022-09-24T01:09:36.169Z,27.80
2022-09-24T01:12:48.688Z,26.00
2022-09-24T01:16:00.403Z,26.00
2022-09-24T01:19:19.315Z,23.60
2022-09-24T01:22:37.197Z,23.80
2022-09-24T01:25:50.595Z,25.75
2022-09-24T01:29:07.284Z,30.00
2022-09-24T01:32:18.465Z,27.00
2022-09-24T01:35:27.407Z,25.00
2022-09-24T01:38:35.028Z,22.60
2022-09-24T01:41:40.189Z,23.60
2022-09-24T01:44:45.590Z,23.60
2022-09-24T01:47:51.047Z,24.00
2022-09-24T01:51:00.739Z,23.60
2022-09-24T01:54:09.807Z,22.50
2022-09-24T01:57:16.900Z,21.50
2022-09-24T02:00:22.552Z,24.40
2022-09-24T02:03:34.696Z,21.60
2022-09-24T02:06:45.903Z,25.00
2022-09-24T02:09:50.542Z,21.00
2022-09-24T02:13:00.121Z,24.00
2022-09-24T02:16:06.567Z,21.20
2022-09-24T02:19:14.971Z,22.00
2022-09-24T02:22:19.473Z,22.00
2022-09-24T02:25:29.952Z,24.00
2022-09-24T02:28:35.017Z,26.40
2022-09-24T02:31:42.685Z,24.00
2022-09-24T02:34:52.359Z,22.20
2022-09-24T02:37:55.614Z,23.00
2022-09-24T02:40:58.932Z,22.80
2022-09-24T02:44:02.680Z,24.40
2022-09-24T02:47:07.124Z,24.40
2022-09-24T02:50:11.996Z,24.00
2022-09-24T02:53:15.367Z,22.80
2022-09-24T02:56:18.668Z,25.40
2022-09-24T02:59:21.942Z,25.40
2022-09-24T03:02:25.369Z,22.40
2022-09-24T03:05:30.012Z,24.00
2022-09-24T03:08:33.534Z,26.25
2022-09-24T03:11:36.873Z,24.00
2022-09-24T03:14:40.396Z,22.00
2022-09-24T03:17:44.004Z,24.00
2022-09-24T03:20:57.434Z,23.00
2022-09-24T03:24:01.474Z,23.00
2022-09-24T03:27:05.044Z,25.00
2022-09-24T03:30:26.494Z,23.50
2022-09-24T03:33:32.751Z,23.00
2022-09-24T03:36:37.447Z,22.00
2022-09-24T03:39:41.023Z,24.20
2022-09-24T03:42:44.394Z,23.50
2022-09-24T03:45:49.187Z,23.50
2022-09-24T03:48:52.965Z,26.40
2022-09-24T03:51:57.641Z,23.40
2022-09-24T03:55:00.939Z,23.60
2022-09-24T03:58:04.316Z,22.00
2022-09-24T04:01:07.997Z,21.00
2022-09-24T04:04:15.414Z,21.00
2022-09-24T04:07:20.124Z,19.20
2022-09-24T04:10:24.912Z,19.00
2022-09-24T04:13:28.227Z,18.33
2022-09-24T04:16:31.609Z,19.00
2022-09-24T04:19:34.938Z,18.00
2022-09-24T04:22:39.894Z,19.25
2022-09-24T04:25:43.163Z,21.00
2022-09-24T04:28:46.481Z,18.00
2022-09-24T04:31:50.006Z,18.40
2022-09-24T04:34:53.532Z,19.00
2022-09-24T04:37:59.428Z,19.00
2022-09-24T04:41:07.606Z,20.20
2022-09-24T04:44:11.478Z,18.60
2022-09-24T04:47:15.105Z,19.00
2022-09-24T04:50:18.879Z,18.80
2022-09-24T04:53:23.627Z,19.60
2022-09-24T04:56:26.880Z,18.00
2022-09-24T04:59:30.600Z,19.40
2022-09-24T05:02:33.998Z,18.60
2022-09-24T05:05:37.293Z,16.20
2022-09-24T05:08:41.974Z,16.80
2022-09-24T05:11:47.091Z,20.00
2022-09-24T05:14:50.397Z,19.60
2022-09-24T05:17:53.752Z,18.80
2022-09-24T05:20:57.686Z,19.40
2022-09-24T05:24:02.694Z,19.40
2022-09-24T05:27:11.908Z,19.40
2022-09-24T05:30:15.750Z,17.00
2022-09-24T05:33:19.068Z,18.00
2022-09-24T05:36:23.005Z,19.00
2022-09-24T05:39:33.498Z,19.00
2022-09-24T05:42:37.343Z,20.50
2022-09-24T05:45:41.812Z,22.00
2022-09-24T05:48:45.046Z,22.00
2022-09-24T05:51:52.271Z,20.00
2022-09-24T05:54:57.311Z,21.60
2022-09-24T05:58:05.036Z,26.80
2022-09-24T06:01:08.376Z,23.00
2022-09-24T06:04:12.795Z,21.80
2022-09-24T06:07:16.422Z,22.80
2022-09-24T06:10:21.032Z,22.00
2022-09-24T06:13:24.197Z,20.25
2022-09-24T06:16:27.572Z,21.20
2022-09-24T06:19:30.910Z,22.40
2022-09-24T06:22:34.220Z,22.00
2022-09-24T06:25:39.024Z,21.60
2022-09-24T06:28:43.593Z,22.00
2022-09-24T06:31:48.235Z,22.20
2022-09-24T06:34:54.430Z,22.40
2022-09-24T06:38:01.558Z,20.00
2022-09-24T06:41:08.027Z,21.40
2022-09-24T06:44:11.865Z,21.40
2022-09-24T06:47:15.205Z,17.00
2022-09-24T06:50:18.468Z,18.60
2022-09-24T06:53:21.714Z,20.00
2022-09-24T06:56:26.544Z,18.00
2022-09-24T06:59:29.921Z,16.00
2022-09-24T07:02:33.314Z,20.00
2022-09-24T07:05:42.518Z,20.40
2022-09-24T07:08:51.556Z,23.80
2022-09-24T07:11:57.066Z,23.00
2022-09-24T07:15:00.994Z,26.00
2022-09-24T07:18:04.284Z,27.00
2022-09-24T07:21:07.841Z,23.40
2022-09-24T07:24:11.146Z,25.80
2022-09-24T07:27:16.317Z,23.80
2022-09-24T07:30:19.868Z,22.80
2022-09-24T07:33:23.205Z,26.00
2022-09-24T07:36:26.399Z,24.00
2022-09-24T07:39:29.616Z,22.60
2022-09-24T07:42:34.483Z,22.00
2022-09-24T07:45:37.699Z,24.00
2022-09-24T07:48:41.249Z,23.40
2022-09-24T07:51:44.890Z,26.20
2022-09-24T07:54:48.526Z,25.00
2022-09-24T07:57:54.795Z,24.00
2022-09-24T08:00:59.863Z,25.25
2022-09-24T08:04:04.724Z,25.00
2022-09-24T08:07:08.430Z,24.40
2022-09-24T08:10:11.708Z,25.00
2022-09-24T08:13:16.613Z,26.00
2022-09-24T08:16:21.575Z,24.20
2022-09-24T08:19:24.906Z,25.60
2022-09-24T08:22:28.601Z,26.75
2022-09-24T08:25:32.492Z,23.50
2022-09-24T08:28:38.407Z,26.25
2022-09-24T08:31:42.795Z,26.67
2022-09-24T08:34:46.250Z,23.40
2022-09-24T08:37:49.630Z,23.00
2022-09-24T08:40:59.209Z,24.00
2022-09-24T08:44:09.660Z,25.00
2022-09-24T08:47:24.556Z,20.50
2022-09-24T08:50:30.488Z,21.00
2022-09-24T08:53:45.845Z,18.50
2022-09-24T08:56:49.560Z,17.00
2022-09-24T08:59:54.763Z,16.00
2022-09-24T09:03:08.009Z,16.00
2022-09-24T09:06:25.317Z,16.80
2022-09-24T09:09:42.691Z,15.60
2022-09-24T09:12:49.357Z,17.00
2022-09-24T09:16:03.325Z,17.40
2022-09-24T09:19:10.295Z,18.40
2022-09-24T09:22:16.997Z,15.00
2022-09-24T09:25:24.064Z,15.25
2022-09-24T09:28:28.600Z,18.00
2022-09-24T09:31:45.954Z,15.60
2022-09-24T09:35:02.583Z,19.00
2022-09-24T09:38:17.918Z,20.00
2022-09-24T09:41:30.859Z,16.00
2022-09-24T09:44:41.989Z,16.00
2022-09-24T09:47:51.025Z,15.60
2022-09-24T09:51:00.354Z,19.50
2022-09-24T09:54:05.014Z,17.40
2022-09-24T09:57:13.403Z,16.80
2022-09-24T10:00:27.913Z,11.00
2022-09-24T10:03:35.540Z,9.00
2022-09-24T10:06:38.839Z,7.00
2022-09-24T10:09:43.778Z,6.00
2022-09-24T10:12:47.387Z,6.00
2022-09-24T10:15:52.902Z,7.00
2022-09-24T10:18:58.029Z,7.00
2022-09-24T10:22:10.948Z,6.60
2022-09-24T10:25:20.780Z,6.00
2022-09-24T10:28:42.613Z,7.00
2022-09-24T10:31:46.485Z,7.00
2022-09-24T10:34:58.879Z,9.00
2022-09-24T10:38:05.962Z,6.00
2022-09-24T10:41:27.301Z,22.20
2022-09-24T10:44:36.811Z,5.00
2022-09-24T10:47:50.857Z,5.80
2022-09-24T10:51:04.253Z,6.00
2022-09-24T10:54:30.646Z,8.00
2022-09-24T10:57:44.981Z,6.00
2022-09-24T11:00:58.506Z,6.00
2022-09-24T11:04:23.472Z,5.00
2022-09-24T11:07:50.335Z,7.00
2022-09-24T11:11:13.540Z,6.33
2022-09-24T11:14:46.737Z,5.50
2022-09-24T11:18:08.389Z,6.00
2022-09-24T11:21:26.504Z,6.00
2022-09-24T11:24:48.140Z,6.40
2022-09-24T11:28:05.803Z,6.00
2022-09-24T11:31:18.882Z,5.00
2022-09-24T11:34:44.997Z,6.00
2022-09-24T11:38:00.125Z,5.00
2022-09-24T11:41:17.337Z,6.00
2022-09-24T11:45:05.371Z,6.20
2022-09-24T11:48:24.542Z,5.00
2022-09-24T11:51:39.408Z,6.00
2022-09-24T11:54:53.789Z,5.00
2022-09-24T11:58:08.324Z,5.00
2022-09-24T12:01:17.477Z,4.00
2022-09-24T12:04:26.637Z,4.00
2022-09-24T12:07:39.829Z,4.00
2022-09-24T12:10:48.245Z,4.00
2022-09-24T12:13:58.247Z,5.00
2022-09-24T12:17:06.785Z,3.80
2022-09-24T12:20:20.457Z,5.00
2022-09-24T12:23:29.447Z,5.00
2022-09-24T12:26:38.844Z,4.00
2022-09-24T12:30:09.719Z,5.00
2022-09-24T12:33:19.822Z,4.00
2022-09-24T12:36:33.659Z,4.00
2022-09-24T12:39:44.249Z,3.00
2022-09-24T12:42:52.794Z,4.50
2022-09-24T12:46:05.245Z,4.00
2022-09-24T12:49:23.907Z,47.50
2022-09-24T12:52:32.654Z,4.00
2022-09-24T12:55:36.773Z,4.00
2022-09-24T12:58:43.712Z,4.80
2022-09-24T13:01:48.852Z,5.00
2022-09-24T13:05:19.893Z,4.50
2022-09-24T13:08:26.405Z,4.50
2022-09-24T13:11:33.654Z,6.00
2022-09-24T13:14:37.021Z,4.00
2022-09-24T13:17:42.094Z,5.40
2022-09-24T13:20:50.138Z,4.00
2022-09-24T13:23:54.644Z,3.00
2022-09-24T13:27:13.878Z,4.00
2022-09-24T13:30:21.608Z,5.00
2022-09-24T13:33:31.475Z,4.00
2022-09-24T13:36:39.690Z,6.00
2022-09-24T13:39:51.486Z,5.60
2022-09-24T13:43:01.876Z,5.00
2022-09-24T13:46:08.964Z,5.00
2022-09-24T13:49:19.002Z,4.00
2022-09-24T13:52:31.419Z,4.00
2022-09-24T13:55:38.297Z,5.75
2022-09-24T13:58:43.324Z,5.00
2022-09-24T14:01:47.439Z,5.00
2022-09-24T14:04:57.981Z,5.00
2022-09-24T14:08:05.994Z,5.00
2022-09-24T14:11:17.835Z,5.00
2022-09-24T14:14:24.759Z,5.00
2022-09-24T14:17:28.126Z,6.00
2022-09-24T14:20:36.524Z,5.00
2022-09-24T14:23:45.640Z,5.00
2022-09-24T14:26:53.458Z,6.00
2022-09-24T14:30:00.779Z,6.00
2022-09-24T14:33:08.341Z,5.20
2022-09-24T14:36:15.428Z,4.00
2022-09-24T14:39:18.786Z,7.00
2022-09-24T14:42:26.757Z,5.00
2022-09-24T14:45:34.490Z,4.00
2022-09-24T14:48:37.849Z,6.00
2022-09-24T14:51:52.826Z,6.00
2022-09-24T14:55:13.006Z,5.20
2022-09-24T14:58:33.553Z,5.80
2022-09-24T15:01:36.885Z,6.00
2022-09-24T15:04:40.360Z,4.25
2022-09-24T15:07:46.774Z,7.00
2022-09-24T15:10:55.071Z,5.00
2022-09-24T15:14:03.869Z,5.20
2022-09-24T15:17:13.575Z,8.00
2022-09-24T15:20:17.403Z,6.00
2022-09-24T15:23:22.103Z,7.50
2022-09-24T15:26:32.181Z,5.00
2022-09-24T15:29:35.541Z,4.80
2022-09-24T15:32:38.828Z,5.00
2022-09-24T15:35:42.199Z,7.00
2022-09-24T15:38:47.104Z,6.60
2022-09-24T15:41:50.502Z,6.40
2022-09-24T15:44:54.763Z,7.40
2022-09-24T15:47:59.221Z,7.60
2022-09-24T15:51:09.648Z,9.00
2022-09-24T15:54:16.777Z,7.00
2022-09-24T15:57:20.088Z,9.00
2022-09-24T16:00:25.312Z,9.00
2022-09-24T16:03:30.549Z,10.60
2022-09-24T16:06:34.075Z,10.00
2022-09-24T16:09:41.363Z,16.00
2022-09-24T16:12:45.317Z,11.60
2022-09-24T16:15:49.449Z,12.80
2022-09-24T16:18:52.835Z,13.00
2022-09-24T16:21:56.145Z,12.00
2022-09-24T16:25:00.867Z,10.00
2022-09-24T16:28:04.176Z,13.60
2022-09-24T16:31:08.442Z,13.00
2022-09-24T16:34:11.995Z,11.50
2022-09-24T16:37:17.386Z,12.00
2022-09-24T16:40:22.444Z,12.00
2022-09-24T16:43:25.774Z,14.00
2022-09-24T16:46:29.288Z,12.25
2022-09-24T16:49:32.862Z,13.25
2022-09-24T16:52:36.131Z,14.40
2022-09-24T16:55:41.152Z,16.00
2022-09-24T16:58:45.795Z,17.40
2022-09-24T17:01:49.374Z,18.00
2022-09-24T17:04:54.691Z,20.00
2022-09-24T17:07:58.002Z,18.00
2022-09-24T17:11:01.659Z,25.00
2022-09-24T17:14:07.143Z,20.00
2022-09-24T17:17:10.359Z,21.60
2022-09-24T17:20:13.844Z,25.00
2022-09-24T17:23:17.124Z,22.20
2022-09-24T17:26:23.559Z,19.00
2022-09-24T17:29:31.287Z,18.00
2022-09-24T17:32:35.062Z,22.00
2022-09-24T17:35:38.406Z,23.40
2022-09-24T17:38:41.655Z,20.20
2022-09-24T17:41:46.964Z,21.25
2022-09-24T17:44:50.288Z,20.75
2022-09-24T17:48:00.554Z,21.00
2022-09-24T17:51:07.233Z,22.00
2022-09-24T17:54:13.941Z,25.00
2022-09-24T17:57:18.939Z,20.00
2022-09-24T18:00:22.246Z,22.00
2022-09-24T18:03:25.478Z,20.00
2022-09-24T18:06:33.193Z,21.75
2022-09-24T18:09:36.623Z,21.80
2022-09-24T18:12:41.272Z,23.00
2022-09-24T18:15:44.889Z,22.00
2022-09-24T18:18:49.497Z,23.20
2022-09-24T18:21:53.123Z,27.00
2022-09-24T18:24:57.415Z,22.20
2022-09-24T18:28:02.636Z,23.50
2022-09-24T18:31:07.277Z,22.00
2022-09-24T18:34:14.182Z,21.40
2022-09-24T18:37:17.496Z,21.60
2022-09-24T18:40:21.023Z,20.00
2022-09-24T18:43:25.835Z,22.20
2022-09-24T18:46:35.040Z,21.40
2022-09-24T18:49:38.345Z,23.00
2022-09-24T18:52:41.686Z,23.60
2022-09-24T18:55:45.249Z,23.00
2022-09-24T18:58:50.224Z,23.00
2022-09-24T19:01:53.508Z,20.00
2022-09-24T19:04:56.974Z,23.40
2022-09-24T19:08:00.417Z,23.25
2022-09-24T19:11:07.671Z,22.20
2022-09-24T19:14:15.045Z,22.00
2022-09-24T19:17:18.599Z,23.00
2022-09-24T19:20:22.388Z,21.00
2022-09-24T19:23:26.381Z,21.80
2022-09-24T19:26:31.491Z,23.00
2022-09-24T19:29:36.388Z,22.40
2022-09-24T19:32:40.103Z,22.20
2022-09-24T19:35:45.846Z,23.00
2022-09-24T19:38:50.123Z,22.00
2022-09-24T19:41:53.514Z,20.80
2022-09-24T19:44:58.929Z,21.00
2022-09-24T19:48:02.617Z,19.00
2022-09-24T19:51:08.751Z,21.00
2022-09-24T19:54:12.471Z,20.00
2022-09-24T19:57:15.876Z,20.00
2022-09-24T20:00:23.901Z,20.25
2022-09-24T20:03:27.989Z,21.00
2022-09-24T20:06:34.123Z,17.25
2022-09-24T20:09:37.510Z,19.00
2022-09-24T20:12:42.781Z,15.00
2022-09-24T20:15:47.566Z,18.50
2022-09-24T20:18:52.279Z,19.00
2022-09-24T20:21:57.729Z,20.00
2022-09-24T20:25:00.981Z,17.00
2022-09-24T20:28:03.251Z,19.80
2022-09-24T20:31:12.462Z,20.00
2022-09-24T20:34:16.140Z,20.60
2022-09-24T20:37:19.346Z,19.25
2022-09-24T20:40:22.693Z,21.00
2022-09-24T20:43:27.846Z,20.00
2022-09-24T20:46:32.642Z,19.00
2022-09-24T20:49:36.076Z,15.25
2022-09-24T20:52:39.492Z,19.00
2022-09-24T20:55:42.848Z,19.50
2022-09-24T20:58:48.231Z,19.00
2022-09-24T21:01:53.479Z,20.00
2022-09-24T21:04:57.484Z,20.60
2022-09-24T21:08:04.717Z,29.00
2022-09-24T21:11:11.921Z,29.60
2022-09-24T21:14:15.272Z,29.00
2022-09-24T21:17:21.029Z,23.00
2022-09-24T21:20:24.257Z,21.50
2022-09-24T21:23:27.501Z,23.00
2022-09-24T21:26:33.223Z,23.80
2022-09-24T21:29:36.514Z,22.60
2022-09-24T21:32:41.442Z,22.20
2022-09-24T21:35:44.923Z,21.75
2022-09-24T21:38:54.699Z,20.80
2022-09-24T21:41:59.810Z,20.00
2022-09-24T21:45:04.274Z,20.75
2022-09-24T21:48:09.222Z,22.00
2022-09-24T21:51:17.725Z,19.60
2022-09-24T21:54:21.213Z,23.00
2022-09-24T21:57:24.510Z,22.00
2022-09-24T22:00:28.208Z,20.75
2022-09-24T22:03:32.819Z,22.80
2022-09-24T22:06:36.104Z,22.60
2022-09-24T22:09:39.740Z,22.50
2022-09-24T22:12:43.758Z,19.00
2022-09-24T22:15:47.591Z,23.25
2022-09-24T22:18:52.256Z,22.00
2022-09-24T22:21:55.489Z,22.00
2022-09-24T22:24:58.763Z,22.00
2022-09-24T22:28:02.843Z,22.60
2022-09-24T22:31:09.774Z,23.25
2022-09-24T22:34:32.422Z,23.00
2022-09-24T22:37:35.620Z,24.00
2022-09-24T22:40:38.969Z,23.40
2022-09-24T22:43:42.462Z,22.00
2022-09-24T22:46:45.916Z,23.00
2022-09-24T22:49:50.728Z,24.40
2022-09-24T22:52:54.447Z,25.00
2022-09-24T22:56:05.264Z,25.00
2022-09-24T22:59:08.649Z,25.40
2022-09-24T23:02:13.305Z,22.00
2022-09-24T23:05:18.480Z,21.00
2022-09-24T23:08:21.729Z,23.00
2022-09-24T23:11:27.134Z,22.50
2022-09-24T23:14:30.422Z,24.00
2022-09-24T23:17:33.741Z,22.60
2022-09-24T23:20:39.096Z,21.00
2022-09-24T23:23:42.409Z,21.00
2022-09-24T23:26:46.385Z,20.75
2022-09-24T23:29:49.976Z,20.00
2022-09-24T23:32:53.474Z,19.40
2022-09-24T23:35:58.666Z,21.00
2022-09-24T23:39:03.004Z,20.00
2022-09-24T23:42:06.638Z,20.00
2022-09-24T23:45:10.857Z,18.50
2022-09-24T23:48:14.823Z,17.80
2022-09-24T23:51:19.754Z,20.00
2022-09-24T23:54:23.745Z,18.50
2022-09-24T23:57:27.321Z,16.75
